Cook, Washington
Current Conditions -  °F | °C
As of 9:53 PM on Wednesday 22 Oct 2014 (Local Time) from KDLS Reporting Station
Light Rain Light Rain  
Wind Chill: 57°   Ceiling: 4400
Heat Index: 57°   Visibility: 10mi
Dew Point: 54°   Wind: 8mph
Humidity: 89%   Direction: 300°WNW
Pressure: 29.73"   Gusts: NA
Location:  45.6752°N, 121.103°W
Report Text: KDLS 230453Z AUTO 30007KT 10SM -RA BKN044 BKN065 OVC075 14/12 A2973 RMK AO2 RAE10B37 SLP067 P0001 T01390122
Loading
Personal Weather Stations






























Interactive Weather Map
Tropical Storm Tracking
New forecast layout! Learn more

10-Day Weather Forecast

Advertisements
Track Severe Weather on mobile